Time;durP1;ratioP1;P1;durP2;ratioP2;P2;SDS_P1;SDS_P2;PMS_P1;PMS_P2;Temp;Humidity;BMP_temperature;BMP_pressure;BME280_temperature;BME280_humidity;BME280_pressure;Samples;Min_cycle;Max_cycle;Signal;HPM_P1;HPM_P2
2023/07/08 00:01:48;;;;;;;4.77;2.50;;;;;;;12.04;85.85;98350.66;6217877;28;20240;-44
2023/07/08 00:04:51;;;;;;;5.13;2.90;;;;;;;12.02;86.22;98350.91;6217241;28;20232;-43
2023/07/08 00:07:53;;;;;;;4.63;3.10;;;;;;;11.76;86.13;98314.78;6219328;28;20319;-45
2023/07/08 00:10:55;;;;;;;4.93;2.90;;;;;;;12.00;85.92;98350.31;6214996;28;20228;-45
2023/07/08 00:13:57;;;;;;;4.30;2.47;;;;;;;11.92;86.19;98339.16;6217917;28;20235;-44
2023/07/08 00:16:59;;;;;;;4.90;2.90;;;;;;;12.02;85.83;98364.25;6214840;28;20244;-46
2023/07/08 00:20:13;;;;;;;5.13;3.53;;;;;;;12.05;85.51;98362.97;6217081;28;20594;-44
2023/07/08 00:23:16;;;;;;;4.70;2.93;;;;;;;12.06;85.05;98356.56;6212360;28;20224;-44
2023/07/08 00:26:24;;;;;;;3.90;3.20;;;;;;;12.08;85.32;98357.97;6222701;28;20234;-44
2023/07/08 00:29:26;;;;;;;4.10;2.70;;;;;;;12.09;85.58;98358.78;6216931;28;20290;-45
2023/07/08 00:32:29;;;;;;;5.60;2.87;;;;;;;11.97;84.81;98337.44;6217825;28;20235;-44
2023/07/08 00:35:39;;;;;;;3.33;2.70;;;;;;;12.00;85.14;98354.84;6213132;28;20236;-45
2023/07/08 00:38:44;;;;;;;3.77;3.03;;;;;;;11.92;85.72;98348.00;6216401;28;20235;-45
2023/07/08 00:41:48;;;;;;;4.33;3.03;;;;;;;11.83;86.29;98341.41;6216557;28;20249;-44
2023/07/08 00:44:50;;;;;;;4.63;3.03;;;;;;;11.76;87.19;98335.31;6218402;28;20329;-45
2023/07/08 00:47:54;;;;;;;6.03;3.07;;;;;;;11.59;87.88;98309.34;6216671;28;20237;-46
2023/07/08 00:50:57;;;;;;;2.90;2.53;;;;;;;11.73;87.43;98325.13;6215626;28;20373;-43
2023/07/08 00:53:59;;;;;;;5.10;3.50;;;;;;;11.69;87.12;98319.44;6215253;28;20775;-45
2023/07/08 00:57:03;;;;;;;4.63;3.00;;;;;;;11.71;87.71;98327.19;6218065;28;20234;-48
2023/07/08 01:00:09;;;;;;;4.37;3.20;;;;;;;11.67;87.93;98329.50;6217031;28;20216;-48
2023/07/08 01:03:11;;;;;;;4.73;3.30;;;;;;;11.65;88.00;98333.47;6215275;28;20228;-47
2023/07/08 01:06:14;;;;;;;3.43;3.00;;;;;;;11.62;87.67;98319.56;6215737;28;20265;-45
2023/07/08 01:09:17;;;;;;;3.83;3.00;;;;;;;11.64;88.39;98330.00;6214778;28;20234;-45
2023/07/08 01:12:26;;;;;;;3.70;3.23;;;;;;;11.64;88.38;98330.00;6215422;28;20228;-45
2023/07/08 01:15:39;;;;;;;6.33;3.37;;;;;;;11.62;88.38;98332.91;6215489;28;20907;-46
2023/07/08 01:18:41;;;;;;;4.20;3.10;;;;;;;11.61;87.77;98331.25;6218243;28;20241;-44
2023/07/08 01:21:59;;;;;;;4.40;3.20;;;;;;;11.52;87.84;98305.97;6215483;28;20231;-44
2023/07/08 01:25:03;;;;;;;4.23;2.93;;;;;;;11.66;87.50;98325.22;6215993;28;20236;-44
2023/07/08 01:28:05;;;;;;;4.73;2.93;;;;;;;11.66;87.22;98330.56;6215895;28;20228;-45
2023/07/08 01:31:07;;;;;;;3.50;3.00;;;;;;;11.65;87.29;98312.13;6214191;28;20235;-44
2023/07/08 01:34:11;;;;;;;4.33;3.30;;;;;;;11.41;87.12;98281.97;6245686;28;20205;-44
2023/07/08 01:37:13;;;;;;;6.87;3.53;;;;;;;11.54;87.34;98311.91;6220091;28;20231;-47
2023/07/08 01:40:34;;;;;;;3.60;3.20;;;;;;;11.50;87.58;98310.72;6215698;28;20386;-44
2023/07/08 01:43:36;;;;;;;6.13;3.40;;;;;;;11.45;88.40;98309.81;6226874;28;20225;-45
2023/07/08 01:46:38;;;;;;;6.10;2.80;;;;;;;11.44;88.11;98305.53;6220166;28;20605;-46
2023/07/08 01:49:43;;;;;;;4.40;2.80;;;;;;;11.46;88.42;98309.56;6218893;28;20701;-43
2023/07/08 01:52:47;;;;;;;4.80;3.00;;;;;;;11.44;87.99;98295.66;6221921;28;20238;-44
2023/07/08 01:55:49;;;;;;;4.13;3.10;;;;;;;11.43;88.13;98296.72;6220215;28;20791;-45
2023/07/08 01:58:52;;;;;;;4.43;3.30;;;;;;;11.21;88.33;98268.97;6219937;28;20239;-45
2023/07/08 02:01:55;;;;;;;3.97;3.43;;;;;;;11.30;88.59;98283.59;6217947;28;20543;-46
2023/07/08 02:04:57;;;;;;;3.47;2.90;;;;;;;11.32;88.37;98294.81;6222743;28;20732;-44
2023/07/08 02:07:59;;;;;;;4.63;2.87;;;;;;;11.27;89.38;98306.19;6220263;28;20322;-43
2023/07/08 02:11:01;;;;;;;5.07;3.10;;;;;;;11.22;89.61;98302.59;6223326;28;20360;-45
2023/07/08 02:14:04;;;;;;;3.70;3.00;;;;;;;11.18;89.97;98283.59;6216240;28;20232;-44
2023/07/08 02:17:06;;;;;;;5.40;2.90;;;;;;;11.04;90.51;98274.19;6220190;28;20239;-43
2023/07/08 02:20:09;;;;;;;5.00;3.50;;;;;;;11.14;91.15;98282.44;6218803;28;20236;-46
2023/07/08 02:23:11;;;;;;;5.23;2.97;;;;;;;11.20;90.45;98278.03;6218327;28;20358;-43
2023/07/08 02:26:13;;;;;;;4.60;3.20;;;;;;;11.25;90.75;98270.13;6220791;28;20261;-44
2023/07/08 02:29:15;;;;;;;5.90;3.67;;;;;;;11.24;90.17;98273.84;6220188;28;20641;-45
2023/07/08 02:32:17;;;;;;;4.60;3.10;;;;;;;11.16;90.19;98271.50;6216600;28;20232;-44
2023/07/08 02:35:19;;;;;;;4.43;3.20;;;;;;;11.23;90.06;98281.03;6206933;28;20235;-44
2023/07/08 02:38:21;;;;;;;5.43;3.07;;;;;;;11.26;89.92;98277.91;6218881;28;20235;-43
2023/07/08 02:41:24;;;;;;;3.77;3.30;;;;;;;11.19;89.86;98268.41;6219166;28;20655;-43
2023/07/08 02:44:26;;;;;;;7.27;3.57;;;;;;;11.18;89.98;98267.59;6223019;28;20748;-43
2023/07/08 02:47:28;;;;;;;3.63;3.33;;;;;;;11.08;90.55;98259.31;6220682;28;20324;-44
2023/07/08 02:50:33;;;;;;;4.80;3.47;;;;;;;10.96;90.80;98242.50;6218475;28;20236;-43
2023/07/08 02:53:51;;;;;;;4.20;3.47;;;;;;;11.12;90.97;98273.81;6246779;28;20225;-44
2023/07/08 02:56:53;;;;;;;7.30;3.90;;;;;;;10.99;90.31;98263.41;6218963;28;20242;-43
2023/07/08 02:59:55;;;;;;;6.80;3.23;;;;;;;10.96;90.41;98247.84;6207883;28;20765;-44
2023/07/08 03:03:00;;;;;;;5.83;3.47;;;;;;;11.06;89.69;98262.22;6220403;28;20239;-43
2023/07/08 03:06:07;;;;;;;4.53;2.87;;;;;;;11.09;90.49;98275.13;6217551;28;20907;-43
2023/07/08 03:09:12;;;;;;;5.27;3.67;;;;;;;11.11;90.42;98294.34;6216369;28;20222;-42
2023/07/08 03:12:15;;;;;;;3.93;3.53;;;;;;;11.02;90.47;98281.56;6215569;28;20216;-44
2023/07/08 03:15:17;;;;;;;4.30;3.47;;;;;;;11.10;90.68;98290.06;6218213;28;20761;-43
2023/07/08 03:18:23;;;;;;;6.70;3.50;;;;;;;11.10;90.83;98291.91;6220155;28;20695;-44
2023/07/08 03:21:27;;;;;;;3.50;3.20;;;;;;;11.10;90.73;98292.72;6214843;28;20832;-46
2023/07/08 03:24:29;;;;;;;6.27;3.70;;;;;;;11.02;90.11;98282.38;6219370;28;20246;-42
2023/07/08 03:27:35;;;;;;;4.03;3.63;;;;;;;11.15;90.31;98307.22;6216166;28;20234;-43
2023/07/08 03:30:37;;;;;;;4.97;4.30;;;;;;;11.16;90.25;98300.84;6217554;28;20243;-42
2023/07/08 03:33:39;;;;;;;4.47;3.60;;;;;;;11.14;90.48;98305.63;6215262;28;20240;-47
2023/07/08 03:36:49;;;;;;;4.80;3.97;;;;;;;11.14;90.62;98310.94;6221751;28;20227;-42
2023/07/08 03:39:53;;;;;;;4.97;3.80;;;;;;;11.11;90.70;98318.34;6219049;28;20235;-43
2023/07/08 03:42:55;;;;;;;7.97;4.20;;;;;;;11.05;91.57;98305.94;6220628;28;20662;-42
2023/07/08 03:45:59;;;;;;;5.23;3.70;;;;;;;11.08;91.81;98316.16;6217097;28;20262;-43
2023/07/08 03:49:02;;;;;;;4.60;4.20;;;;;;;11.15;91.61;98318.72;6214291;28;20329;-44
2023/07/08 03:52:04;;;;;;;5.13;3.73;;;;;;;11.18;91.68;98312.94;6218560;28;20268;-46
2023/07/08 03:55:11;;;;;;;5.30;3.63;;;;;;;11.15;91.48;98312.56;6223579;28;20702;-44
2023/07/08 03:58:13;;;;;;;4.90;4.10;;;;;;;11.20;92.12;98323.34;6231694;28;20290;-44
2023/07/08 04:01:20;;;;;;;5.57;4.60;;;;;;;11.13;92.39;98303.97;6248434;28;20237;-44
2023/07/08 04:04:23;;;;;;;6.63;4.50;;;;;;;11.12;92.90;98300.50;6223251;28;20228;-43
2023/07/08 04:07:25;;;;;;;4.60;4.20;;;;;;;11.24;93.24;98316.53;6221423;28;20713;-43
2023/07/08 04:10:27;;;;;;;5.87;4.10;;;;;;;11.28;93.69;98315.00;6223366;28;20606;-45
2023/07/08 04:13:29;;;;;;;5.07;4.37;;;;;;;11.31;93.61;98312.69;6223140;28;20385;-43
2023/07/08 04:16:51;;;;;;;5.97;4.10;;;;;;;11.31;93.20;98320.69;6219693;28;20683;-43
2023/07/08 04:19:56;;;;;;;5.33;4.80;;;;;;;11.37;94.67;98313.63;6216901;28;20303;-43
2023/07/08 04:22:58;;;;;;;6.27;3.97;;;;;;;11.42;94.09;98316.41;6217518;28;20695;-45
2023/07/08 04:26:01;;;;;;;4.40;4.00;;;;;;;11.48;94.14;98314.69;6217937;28;20712;-47
2023/07/08 04:29:03;;;;;;;5.47;4.77;;;;;;;11.53;93.73;98315.63;6214769;28;20743;-45
2023/07/08 04:32:06;;;;;;;6.60;4.57;;;;;;;11.59;94.15;98313.88;6213770;28;20227;-46
2023/07/08 04:35:08;;;;;;;8.33;4.90;;;;;;;11.66;94.43;98311.88;6219320;28;20235;-44
2023/07/08 04:38:23;;;;;;;5.87;4.93;;;;;;;11.80;93.95;98304.44;6216234;28;20243;-45
2023/07/08 04:41:26;;;;;;;5.90;4.93;;;;;;;11.91;93.50;98305.50;6216137;28;20229;-45
2023/07/08 04:44:28;;;;;;;5.73;4.00;;;;;;;11.95;93.79;98317.34;6219740;28;20227;-44
2023/07/08 04:47:30;;;;;;;4.87;4.37;;;;;;;12.00;93.96;98309.44;6214925;28;20228;-45
2023/07/08 04:50:32;;;;;;;7.00;5.17;;;;;;;12.07;94.52;98312.81;6218031;28;20373;-45
2023/07/08 04:53:34;;;;;;;7.03;4.67;;;;;;;12.18;94.13;98311.97;6215529;28;20227;-45
2023/07/08 04:56:40;;;;;;;9.60;4.80;;;;;;;12.30;94.20;98304.72;6216520;28;20236;-46
2023/07/08 04:59:42;;;;;;;7.60;4.87;;;;;;;12.36;94.23;98305.63;6214402;28;20232;-43
2023/07/08 05:02:44;;;;;;;6.13;4.63;;;;;;;12.40;93.94;98307.56;6217797;28;20709;-43
2023/07/08 05:05:46;;;;;;;9.30;5.23;;;;;;;12.50;93.96;98308.81;6219313;28;20247;-44
2023/07/08 05:08:48;;;;;;;6.10;4.60;;;;;;;12.56;93.66;98306.03;6215266;28;20231;-48
2023/07/08 05:11:50;;;;;;;5.47;4.70;;;;;;;12.71;93.62;98304.66;6214575;28;20236;-47
2023/07/08 05:14:53;;;;;;;4.83;4.27;;;;;;;12.76;93.21;98302.91;6217623;28;20810;-45
2023/07/08 05:17:55;;;;;;;5.87;5.20;;;;;;;12.83;92.72;98308.91;6216717;28;20244;-45
2023/07/08 05:20:57;;;;;;;6.73;4.60;;;;;;;12.91;92.75;98307.72;6219782;28;20231;-46
2023/07/08 05:24:01;;;;;;;5.27;4.30;;;;;;;12.97;92.36;98309.41;6219598;28;20607;-47
2023/07/08 05:27:04;;;;;;;4.83;4.33;;;;;;;13.04;92.00;98304.72;6245365;28;20231;-46
2023/07/08 05:30:07;;;;;;;4.40;4.00;;;;;;;13.13;91.89;98302.47;6245225;28;20218;-45
2023/07/08 05:33:10;;;;;;;5.13;3.87;;;;;;;13.27;91.48;98302.97;6243291;28;20217;-46
2023/07/08 05:36:12;;;;;;;5.83;4.30;;;;;;;13.21;91.73;98274.50;6249293;28;20766;-44
2023/07/08 05:39:14;;;;;;;4.10;3.70;;;;;;;13.42;91.87;98298.66;6245443;28;20208;-45
2023/07/08 05:42:16;;;;;;;4.83;4.30;;;;;;;13.55;91.74;98302.06;6237165;28;20211;-41
2023/07/08 05:45:18;;;;;;;5.50;4.63;;;;;;;13.56;91.50;98288.44;6244731;28;20585;-40
2023/07/08 05:48:20;;;;;;;4.93;4.43;;;;;;;13.75;90.45;98282.81;6247381;28;20207;-38
2023/07/08 05:51:22;;;;;;;5.47;3.87;;;;;;;13.90;89.82;98299.88;6243214;28;20219;-42
2023/07/08 05:54:24;;;;;;;6.37;3.90;;;;;;;14.03;89.12;98296.03;6250427;28;20230;-40
2023/07/08 05:57:28;;;;;;;4.67;3.80;;;;;;;13.94;88.91;98278.78;6247962;28;20916;-42
2023/07/08 06:00:30;;;;;;;4.67;3.90;;;;;;;14.16;88.83;98300.22;6245101;28;20372;-41
2023/07/08 06:03:40;;;;;;;5.57;4.37;;;;;;;14.14;88.81;98287.06;6244645;28;20700;-41
2023/07/08 06:06:42;;;;;;;4.07;3.73;;;;;;;14.32;89.08;98302.00;6242488;28;20223;-40
2023/07/08 06:09:44;;;;;;;6.63;3.87;;;;;;;14.43;89.03;98301.06;6240050;28;20806;-42
2023/07/08 06:12:46;;;;;;;4.30;3.90;;;;;;;14.49;88.47;98282.41;6246109;28;20255;-40
2023/07/08 06:15:48;;;;;;;4.83;3.70;;;;;;;14.77;88.06;98297.41;6243901;28;20224;-40
2023/07/08 06:18:51;;;;;;;4.40;3.93;;;;;;;14.91;87.83;98299.44;6244870;28;20238;-40
2023/07/08 06:21:53;;;;;;;5.53;4.13;;;;;;;15.04;87.35;98300.09;6242350;28;20239;-40
2023/07/08 06:24:55;;;;;;;5.37;3.90;;;;;;;15.02;87.16;98278.84;6244880;28;20253;-41
2023/07/08 06:27:57;;;;;;;4.70;4.20;;;;;;;15.43;85.50;98297.97;6242931;28;20306;-41
2023/07/08 06:31:00;;;;;;;5.50;4.33;;;;;;;15.69;84.41;98298.97;6243952;28;20224;-41
2023/07/08 06:34:05;;;;;;;5.37;4.07;;;;;;;15.91;83.78;98285.38;6241114;28;20252;-41
2023/07/08 06:37:07;;;;;;;5.27;4.13;;;;;;;16.25;83.34;98296.56;6248996;28;20227;-41
2023/07/08 06:40:10;;;;;;;4.43;4.00;;;;;;;16.54;82.04;98293.44;6243851;28;20713;-43
2023/07/08 06:43:12;;;;;;;4.27;3.60;;;;;;;16.80;79.96;98292.47;6242405;28;20230;-43
2023/07/08 06:46:22;;;;;;;5.70;3.97;;;;;;;17.07;80.18;98294.09;6244513;28;20240;-42
2023/07/08 06:49:24;;;;;;;4.30;3.67;;;;;;;17.39;74.48;98294.63;6243956;28;20289;-43
2023/07/08 06:52:26;;;;;;;4.23;3.73;;;;;;;17.59;75.08;98296.50;6243163;28;20223;-41
2023/07/08 06:55:29;;;;;;;5.47;3.57;;;;;;;17.77;72.32;98295.13;6244645;28;20238;-41
2023/07/08 06:58:32;;;;;;;4.20;3.63;;;;;;;18.13;70.61;98290.44;6242876;28;20803;-39
2023/07/08 07:01:34;;;;;;;5.10;3.70;;;;;;;18.43;67.17;98284.09;6245369;28;20231;-40
2023/07/08 07:04:36;;;;;;;3.40;3.10;;;;;;;18.68;65.28;98280.47;6248576;28;20603;-39
2023/07/08 07:07:39;;;;;;;5.90;3.10;;;;;;;18.78;66.61;98277.72;6243532;28;20226;-39
2023/07/08 07:10:41;;;;;;;3.93;3.53;;;;;;;19.10;64.97;98283.69;6242128;28;20242;-40
2023/07/08 07:13:44;;;;;;;5.83;3.57;;;;;;;19.09;67.08;98266.69;6240660;28;20227;-43
2023/07/08 07:16:46;;;;;;;4.23;3.27;;;;;;;19.28;67.18;98283.00;6241366;28;20242;-52
2023/07/08 07:20:08;;;;;;;4.43;3.53;;;;;;;19.52;63.01;98278.47;6243921;28;20238;-44
2023/07/08 07:23:11;;;;;;;3.67;3.37;;;;;;;19.51;62.97;98260.63;6242025;28;20239;-44
2023/07/08 07:26:14;;;;;;;4.87;3.57;;;;;;;19.91;58.96;98282.97;6243414;28;20242;-57
2023/07/08 07:29:17;;;;;;;5.20;3.40;;;;;;;20.18;60.51;98287.75;6242621;28;20231;-50
2023/07/08 07:32:24;;;;;;;4.80;3.50;;;;;;;20.17;61.40;98279.94;6243236;28;20662;-50
2023/07/08 07:35:26;;;;;;;6.10;3.60;;;;;;;20.16;57.92;98279.16;6234888;28;20273;-46
2023/07/08 07:38:30;;;;;;;11.13;4.10;;;;;;;20.41;54.91;98278.00;6246407;28;20318;-49
2023/07/08 07:41:32;;;;;;;5.13;3.83;;;;;;;20.55;58.53;98286.25;6239035;28;20879;-48
2023/07/08 07:44:35;;;;;;;4.70;3.60;;;;;;;20.55;55.71;98281.66;6241585;28;20614;-47
2023/07/08 07:47:39;;;;;;;4.73;3.60;;;;;;;20.48;59.75;98264.16;6240640;28;20232;-48
2023/07/08 07:50:46;;;;;;;3.83;3.47;;;;;;;20.49;56.25;98265.75;6237159;28;20230;-46
2023/07/08 07:53:48;;;;;;;4.13;3.33;;;;;;;20.78;57.34;98288.06;6240508;28;20318;-46
2023/07/08 07:56:51;;;;;;;5.40;3.23;;;;;;;20.75;61.51;98293.28;6224791;28;20239;-46
2023/07/08 07:59:53;;;;;;;4.13;3.60;;;;;;;20.85;55.46;98291.22;6213934;28;20742;-50
2023/07/08 08:02:56;;;;;;;4.30;3.50;;;;;;;20.90;60.44;98284.94;6220368;28;20236;-46
2023/07/08 08:05:58;;;;;;;5.93;3.50;;;;;;;20.84;62.04;98278.78;6213264;28;20314;-48
2023/07/08 08:09:01;;;;;;;4.27;3.33;;;;;;;21.26;50.43;98274.31;6217170;28;20232;-47
2023/07/08 08:12:04;;;;;;;5.47;3.97;;;;;;;21.44;53.92;98280.03;6218411;28;20239;-46
2023/07/08 08:15:07;;;;;;;6.27;3.80;;;;;;;21.40;51.59;98290.66;6216781;28;20656;-46
2023/07/08 08:18:09;;;;;;;3.83;3.27;;;;;;;21.59;52.34;98285.97;6218163;28;20244;-48
2023/07/08 08:21:11;;;;;;;4.33;3.57;;;;;;;21.60;49.09;98271.31;6218261;28;20247;-48
2023/07/08 08:24:13;;;;;;;5.07;3.00;;;;;;;21.78;49.85;98287.81;6219161;28;20592;-46
2023/07/08 08:27:15;;;;;;;4.77;3.00;;;;;;;21.87;53.33;98289.53;6219319;28;20275;-44
2023/07/08 08:30:18;;;;;;;4.57;3.33;;;;;;;21.87;51.15;98291.44;6236931;28;20795;-48
2023/07/08 08:33:20;;;;;;;4.87;3.10;;;;;;;21.98;51.01;98292.06;6240967;28;20223;-46
2023/07/08 08:36:23;;;;;;;3.73;3.00;;;;;;;21.97;50.02;98293.13;6239823;28;20231;-44
2023/07/08 08:39:29;;;;;;;3.97;3.67;;;;;;;21.99;53.79;98293.66;6243785;28;20235;-46
2023/07/08 08:42:40;;;;;;;4.47;3.33;;;;;;;21.89;57.37;98295.47;6238349;28;20593;-44
2023/07/08 08:45:46;;;;;;;3.50;3.20;;;;;;;21.83;59.04;98293.16;6240538;28;20215;-46
2023/07/08 08:49:22;;;;;;;3.77;3.37;;;;;;;21.81;57.83;98298.84;6239757;28;20729;-43
2023/07/08 08:52:24;;;;;;;5.03;3.20;;;;;;;21.92;54.72;98288.66;6239555;28;20239;-46
2023/07/08 08:55:28;;;;;;;4.80;2.83;;;;;;;21.95;60.44;98270.94;6244208;28;20235;-42
2023/07/08 08:58:41;;;;;;;4.23;3.40;;;;;;;21.98;61.21;98273.88;6244865;28;20686;-43
2023/07/08 09:01:45;;;;;;;4.80;3.27;;;;;;;22.00;59.62;98278.97;6245680;28;20293;-44
2023/07/08 09:04:48;;;;;;;3.50;3.20;;;;;;;22.08;59.78;98278.28;6252138;28;20246;-43
2023/07/08 09:08:12;;;;;;;5.43;3.73;;;;;;;22.36;52.91;98276.38;6244485;28;20227;-42
2023/07/08 09:11:25;;;;;;;3.73;3.33;;;;;;;22.44;55.19;98266.72;6243717;28;20219;-42
2023/07/08 09:14:30;;;;;;;4.88;3.55;;;;;;;22.50;55.46;98268.19;6245971;28;20234;-41
2023/07/08 09:17:34;;;;;;;3.90;2.97;;;;;;;22.42;52.94;98256.16;6245243;28;20235;-41
2023/07/08 09:20:39;;;;;;;7.20;3.33;;;;;;;22.73;49.75;98269.06;6244189;28;20340;-42
2023/07/08 09:23:44;;;;;;;5.30;3.77;;;;;;;22.85;51.10;98272.81;6245559;28;20233;-43
2023/07/08 09:26:50;;;;;;;4.07;3.35;;;;;;;23.09;47.45;98267.13;6245501;28;20373;-42
2023/07/08 09:29:52;;;;;;;5.95;3.35;;;;;;;23.17;48.62;98273.75;6245471;28;20365;-43
2023/07/08 09:32:54;;;;;;;4.68;3.65;;;;;;;23.24;47.19;98252.34;6244112;28;20346;-42
2023/07/08 09:35:56;;;;;;;6.03;3.55;;;;;;;23.50;49.92;98265.31;6245153;28;20242;-42
2023/07/08 09:39:00;;;;;;;5.80;3.72;;;;;;;23.59;48.04;98239.75;6245170;28;20242;-43
2023/07/08 09:42:08;;;;;;;4.45;3.67;;;;;;;23.82;46.87;98251.41;6243046;28;20593;-44
2023/07/08 09:45:20;;;;;;;4.07;3.58;;;;;;;23.79;47.41;98257.47;6246424;28;20592;-42
2023/07/08 09:48:34;;;;;;;5.50;3.60;;;;;;;23.63;51.40;98229.03;6250639;28;20231;-42
2023/07/08 09:51:36;;;;;;;4.28;3.08;;;;;;;23.86;46.68;98257.03;6245475;28;20373;-44
2023/07/08 09:54:41;;;;;;;4.70;3.40;;;;;;;23.94;45.89;98234.50;6242016;28;20257;-46
2023/07/08 09:57:49;;;;;;;4.03;3.13;;;;;;;24.03;46.60;98245.38;6246879;28;20807;-42
2023/07/08 10:00:55;;;;;;;4.82;3.50;;;;;;;24.08;45.45;98235.13;6244941;28;20325;-44
2023/07/08 10:04:02;;;;;;;3.45;3.15;;;;;;;24.14;48.00;98238.53;6244906;28;20854;-42
2023/07/08 10:07:12;;;;;;;6.07;3.40;;;;;;;23.88;48.30;98195.72;6246618;28;20573;-42
2023/07/08 10:10:18;;;;;;;4.43;3.25;;;;;;;24.19;56.26;98238.38;6243883;28;20231;-41
2023/07/08 10:13:28;;;;;;;4.68;3.40;;;;;;;24.25;44.09;98234.41;6242198;28;20270;-43
2023/07/08 10:16:33;;;;;;;4.80;3.10;;;;;;;24.23;50.08;98206.66;6243298;28;20232;-42
2023/07/08 10:19:35;;;;;;;7.85;3.10;;;;;;;24.40;50.66;98233.16;6245048;28;20235;-43
2023/07/08 10:22:44;;;;;;;4.28;2.90;;;;;;;24.46;51.49;98229.16;6245931;28;20230;-43
2023/07/08 10:26:00;;;;;;;4.47;3.10;;;;;;;24.47;44.00;98219.06;6241872;28;20236;-46
2023/07/08 10:29:34;;;;;;;5.63;2.67;;;;;;;24.64;45.59;98221.81;6243163;28;20231;-43
2023/07/08 10:32:45;;;;;;;4.18;3.40;;;;;;;24.80;45.31;98225.63;6245861;28;20611;-44
2023/07/08 10:36:14;;;;;;;6.05;3.58;;;;;;;25.05;41.23;98224.00;6244067;28;20278;-42
2023/07/08 10:39:41;;;;;;;4.03;2.85;;;;;;;25.14;41.07;98213.13;6244157;28;20239;-42
2023/07/08 10:43:02;;;;;;;3.20;2.90;;;;;;;25.08;41.92;98215.22;6242965;28;20223;-45
2023/07/08 10:46:04;;;;;;;4.35;3.05;;;;;;;25.06;42.92;98211.97;6246848;28;20756;-44
2023/07/08 10:49:45;;;;;;;5.38;2.60;;;;;;;25.07;40.64;98213.59;6247131;28;20624;-42
2023/07/08 10:53:35;;;;;;;3.17;2.45;;;;;;;25.18;36.85;98203.19;6243053;28;20227;-42
2023/07/08 10:56:47;;;;;;;6.57;2.53;;;;;;;25.16;34.20;98181.66;6246158;28;20235;-42
2023/07/08 11:00:14;;;;;;;3.42;2.55;;;;;;;25.21;37.01;98207.97;6244316;28;20312;-42
2023/07/08 11:03:42;;;;;;;3.28;2.33;;;;;;;25.29;36.13;98209.06;6242346;28;20752;-42
2023/07/08 11:06:50;;;;;;;4.47;2.63;;;;;;;25.33;39.50;98194.47;6243361;28;20756;-43
2023/07/08 11:09:57;;;;;;;2.92;2.03;;;;;;;25.31;41.00;98206.81;6242540;28;20235;-43
2023/07/08 11:13:05;;;;;;;2.72;2.50;;;;;;;25.25;39.28;98200.75;6242872;28;20315;-43
2023/07/08 11:16:15;;;;;;;3.55;2.60;;;;;;;25.31;38.13;98198.63;6245927;28;20240;-42
2023/07/08 11:19:26;;;;;;;5.28;2.70;;;;;;;25.34;39.95;98203.44;6243016;28;20250;-43
2023/07/08 11:22:31;;;;;;;3.90;2.38;;;;;;;25.28;36.57;98181.00;6240502;28;20224;-43
2023/07/08 11:25:35;;;;;;;7.68;2.83;;;;;;;25.52;37.13;98204.16;6243104;28;20242;-44
2023/07/08 11:28:37;;;;;;;4.35;2.90;;;;;;;25.66;39.04;98204.75;6243244;28;20237;-43
2023/07/08 11:31:40;;;;;;;4.53;3.40;;;;;;;25.68;38.97;98207.97;6242908;28;20227;-44
2023/07/08 11:34:46;;;;;;;3.13;2.60;;;;;;;25.69;37.76;98194.00;6241381;28;20234;-41
2023/07/08 11:37:49;;;;;;;4.38;2.67;;;;;;;25.61;34.88;98166.75;6242569;28;20249;-44
2023/07/08 11:41:11;;;;;;;5.05;3.15;;;;;;;25.63;36.99;98176.22;6243389;28;20235;-42
2023/07/08 11:44:13;;;;;;;3.80;2.70;;;;;;;25.82;35.59;98183.22;6242616;28;20231;-42
2023/07/08 11:47:20;;;;;;;4.10;2.78;;;;;;;25.86;37.22;98184.97;6243240;28;20231;-44
2023/07/08 11:50:28;;;;;;;4.03;2.40;;;;;;;25.94;35.35;98184.09;6243184;28;20278;-43
2023/07/08 11:53:36;;;;;;;4.25;2.47;;;;;;;26.03;34.62;98184.06;6243043;28;20235;-44
2023/07/08 11:56:57;;;;;;;2.85;2.20;;;;;;;25.92;34.21;98175.44;6243305;28;20215;-43
2023/07/08 12:00:15;;;;;;;4.78;3.05;;;;;;;26.02;34.38;98171.53;6240303;28;20234;-42
2023/07/08 12:03:22;;;;;;;4.07;2.80;;;;;;;25.67;34.68;98113.59;6234271;28;20224;-45
2023/07/08 12:06:27;;;;;;;4.57;2.53;;;;;;;26.07;33.83;98165.88;6243760;28;20234;-42
2023/07/08 12:09:38;;;;;;;2.53;2.30;;;;;;;26.22;35.00;98161.75;6241313;28;20294;-42
2023/07/08 12:12:44;;;;;;;3.13;2.55;;;;;;;26.12;35.10;98145.78;6244631;28;20230;-42
2023/07/08 12:15:46;;;;;;;4.47;2.83;;;;;;;26.28;35.70;98168.63;6246559;28;20232;-42
2023/07/08 12:18:49;;;;;;;5.65;2.50;;;;;;;26.34;35.53;98172.75;6245117;28;20230;-43
2023/07/08 12:21:52;;;;;;;2.50;2.30;;;;;;;26.37;37.79;98169.34;6240300;28;20231;-42
2023/07/08 12:24:55;;;;;;;3.40;2.95;;;;;;;26.42;38.02;98166.44;6242237;28;20238;-44
2023/07/08 12:27:57;;;;;;;2.83;2.33;;;;;;;26.45;37.72;98167.69;6242336;28;20743;-43
2023/07/08 12:31:00;;;;;;;3.22;2.72;;;;;;;26.58;38.17;98165.84;6239540;28;20235;-42
2023/07/08 12:34:02;;;;;;;3.50;2.90;;;;;;;26.53;38.78;98155.91;6240952;28;20713;-43
2023/07/08 12:37:09;;;;;;;3.38;2.72;;;;;;;26.62;37.38;98166.78;6241476;28;20250;-45
2023/07/08 12:40:12;;;;;;;5.22;2.90;;;;;;;26.73;37.01;98155.06;6241885;28;20763;-44
2023/07/08 12:43:16;;;;;;;2.97;2.47;;;;;;;26.66;37.91;98129.44;6240337;28;20232;-44
2023/07/08 12:46:21;;;;;;;4.53;3.08;;;;;;;26.90;37.05;98150.59;6242654;28;20227;-42
2023/07/08 12:49:27;;;;;;;4.63;2.85;;;;;;;26.96;34.56;98150.03;6245687;28;20235;-44
2023/07/08 12:52:29;;;;;;;6.57;3.03;;;;;;;26.84;34.29;98141.78;6236972;28;20242;-42
2023/07/08 12:55:31;;;;;;;4.72;2.88;;;;;;;26.78;35.93;98143.13;6240234;28;20227;-43
2023/07/08 12:58:39;;;;;;;4.55;2.50;;;;;;;26.64;37.33;98151.63;6247801;28;20725;-42
2023/07/08 13:01:42;;;;;;;5.10;2.92;;;;;;;26.43;39.41;98137.19;6240967;28;20264;-42
2023/07/08 13:04:46;;;;;;;5.68;3.20;;;;;;;26.32;37.74;98147.69;6239162;28;20247;-42
2023/07/08 13:07:48;;;;;;;3.78;2.78;;;;;;;26.26;37.79;98149.03;6241257;28;20224;-42
2023/07/08 13:10:59;;;;;;;4.72;3.03;;;;;;;26.24;37.76;98134.91;6272630;28;20231;-42
2023/07/08 13:14:06;;;;;;;3.80;2.70;;;;;;;26.35;35.96;98136.09;6240906;28;20310;-43
2023/07/08 13:17:12;;;;;;;2.97;2.55;;;;;;;26.40;38.54;98154.22;6242546;28;20224;-43
2023/07/08 13:20:16;;;;;;;3.15;2.42;;;;;;;26.34;38.50;98142.69;6238794;28;20220;-42
2023/07/08 13:23:20;;;;;;;3.35;2.80;;;;;;;26.34;40.05;98134.50;6241540;28;20643;-43
2023/07/08 13:26:28;;;;;;;3.38;2.88;;;;;;;26.33;38.28;98132.09;6243912;28;20232;-43
2023/07/08 13:29:35;;;;;;;4.45;2.90;;;;;;;26.38;40.24;98142.84;6238464;28;20225;-45
2023/07/08 13:32:37;;;;;;;8.00;2.92;;;;;;;26.30;39.91;98130.03;6243875;28;20591;-43
2023/07/08 13:35:40;;;;;;;3.90;2.55;;;;;;;26.38;41.16;98135.44;6241841;28;20222;-43
2023/07/08 13:38:44;;;;;;;6.72;2.80;;;;;;;26.36;38.89;98134.19;6239127;28;20227;-42
2023/07/08 13:41:46;;;;;;;3.67;2.60;;;;;;;26.26;40.53;98142.78;6274872;28;20223;-43
2023/07/08 13:44:49;;;;;;;3.00;2.47;;;;;;;26.27;37.43;98136.97;6242677;28;20235;-43
2023/07/08 13:48:18;;;;;;;6.45;2.90;;;;;;;26.36;35.89;98134.97;6245658;28;20703;-42
2023/07/08 13:51:22;;;;;;;3.50;2.90;;;;;;;26.37;37.65;98135.78;6246097;28;22880;-43
2023/07/08 13:54:33;;;;;;;6.15;3.00;;;;;;;26.46;35.82;98131.06;6246955;28;20607;-42
2023/07/08 13:57:39;;;;;;;4.38;2.88;;;;;;;26.45;36.07;98138.47;6250981;28;20285;-43
2023/07/08 14:00:41;;;;;;;5.70;3.05;;;;;;;26.37;35.74;98106.53;6248392;28;20751;-42
2023/07/08 14:03:44;;;;;;;2.78;2.25;;;;;;;26.55;36.75;98133.69;6247597;28;20222;-42
2023/07/08 14:06:47;;;;;;;5.13;3.10;;;;;;;26.41;40.63;98109.38;6244355;28;20255;-42
2023/07/08 14:09:49;;;;;;;3.15;2.60;;;;;;;26.60;36.65;98128.03;6246284;28;20227;-47
2023/07/08 14:12:52;;;;;;;2.92;2.63;;;;;;;26.62;38.88;98123.03;6240997;28;20231;-41
2023/07/08 14:15:55;;;;;;;3.67;2.50;;;;;;;26.57;37.15;98126.00;6245608;28;20227;-45
2023/07/08 14:18:59;;;;;;;4.93;2.70;;;;;;;26.62;38.39;98123.84;6241891;28;20330;-44
2023/07/08 14:22:24;;;;;;;2.60;2.40;;;;;;;26.61;36.66;98121.44;6274658;28;20611;-41
2023/07/08 14:25:26;;;;;;;5.15;2.33;;;;;;;26.46;37.70;98123.66;6246701;28;20236;-43
2023/07/08 14:28:28;;;;;;;3.33;3.03;;;;;;;26.30;39.15;98117.16;6242883;28;20389;-42
2023/07/08 14:31:30;;;;;;;5.03;2.80;;;;;;;26.17;40.61;98118.25;6243369;28;20227;-42
2023/07/08 14:34:34;;;;;;;2.88;2.45;;;;;;;26.16;41.42;98116.66;6244111;28;20232;-43